Time;durP1;ratioP1;P1;durP2;ratioP2;P2;SDS_P1;SDS_P2;PMS_P1;PMS_P2;Temp;Humidity;BMP_temperature;BMP_pressure;BME280_temperature;BME280_humidity;BME280_pressure;Samples;Min_cycle;Max_cycle;Signal;HPM_P1;HPM_P2
2021/08/01 00:01:05;;;;;;;21.10;16.77;;;14.90;1.00;;;;;;5033396;28;20206;-61
2021/08/01 00:03:32;;;;;;;20.50;16.10;;;15.00;1.00;;;;;;5033200;28;20202;-61
2021/08/01 00:05:59;;;;;;;23.83;16.27;;;15.00;1.00;;;;;;5032864;28;20207;-60
2021/08/01 00:08:27;;;;;;;20.10;16.57;;;15.00;1.00;;;;;;5033343;28;20268;-61
2021/08/01 00:10:58;;;;;;;21.50;15.93;;;15.00;1.00;;;;;;5033189;28;20551;-61
2021/08/01 00:13:25;;;;;;;20.93;16.37;;;15.00;1.00;;;;;;5033188;28;20245;-60
2021/08/01 00:15:51;;;;;;;22.67;17.40;;;14.90;1.00;;;;;;5033067;28;20214;-61
2021/08/01 00:18:18;;;;;;;25.47;17.43;;;14.90;1.00;;;;;;5033381;28;20210;-60
2021/08/01 00:20:45;;;;;;;23.47;17.40;;;14.90;1.00;;;;;;5032916;28;20718;-60
2021/08/01 00:23:11;;;;;;;20.87;17.17;;;14.90;1.00;;;;;;5033274;28;20260;-61
2021/08/01 00:25:39;;;;;;;19.53;16.53;;;14.90;1.00;;;;;;5032959;28;20256;-61
2021/08/01 00:28:06;;;;;;;22.30;16.43;;;14.90;1.00;;;;;;5032705;28;20218;-61
2021/08/01 00:30:33;;;;;;;19.60;15.73;;;14.90;1.00;;;;;;5032962;28;20222;-60
2021/08/01 00:33:00;;;;;;;18.70;16.40;;;15.00;1.00;;;;;;5032587;28;20607;-62
2021/08/01 00:35:27;;;;;;;22.07;16.20;;;15.00;1.00;;;;;;5032811;28;20210;-61
2021/08/01 00:37:53;;;;;;;23.53;17.10;;;15.00;1.00;;;;;;5032804;28;20210;-61
2021/08/01 00:40:22;;;;;;;18.50;15.83;;;15.00;1.00;;;;;;5032699;28;20222;-62
2021/08/01 00:42:50;;;;;;;20.73;16.67;;;15.00;1.00;;;;;;5032528;28;20208;-61
2021/08/01 00:45:17;;;;;;;23.90;17.83;;;14.90;1.00;;;;;;5032447;28;20667;-61
2021/08/01 00:47:44;;;;;;;23.53;17.63;;;14.80;1.00;;;;;;5032624;28;20217;-61
2021/08/01 00:50:13;;;;;;;21.93;17.00;;;14.80;1.00;;;;;;5032592;28;20284;-61
2021/08/01 00:52:40;;;;;;;20.10;15.63;;;14.80;1.00;;;;;;5032502;28;20376;-57
2021/08/01 00:55:09;;;;;;;21.57;16.80;;;14.80;1.00;;;;;;5032084;28;20264;-61
2021/08/01 00:57:36;;;;;;;18.20;15.93;;;14.80;1.00;;;;;;5032076;28;20206;-61
2021/08/01 01:00:11;;;;;;;19.27;16.10;;;14.80;1.00;;;;;;5032428;28;20230;-61
2021/08/01 01:02:40;;;;;;;20.80;16.97;;;14.70;1.00;;;;;;5032263;28;20208;-61
2021/08/01 01:05:15;;;;;;;22.47;16.83;;;14.70;1.00;;;;;;5032037;28;20206;-61
2021/08/01 01:07:49;;;;;;;23.20;16.70;;;14.70;1.00;;;;;;5032466;28;20210;-61
2021/08/01 01:10:19;;;;;;;23.87;16.53;;;14.60;1.00;;;;;;5032142;28;20277;-61
2021/08/01 01:12:50;;;;;;;23.77;17.40;;;14.60;1.00;;;;;;5031923;28;20233;-61
2021/08/01 01:15:23;;;;;;;22.67;16.77;;;14.60;1.00;;;;;;5032154;28;20256;-62
2021/08/01 01:17:53;;;;;;;23.53;16.67;;;14.60;1.00;;;;;;5032077;28;20206;-62
2021/08/01 01:20:35;;;;;;;25.93;18.50;;;14.50;1.00;;;;;;5032068;28;20276;-62
2021/08/01 01:23:16;;;;;;;23.23;17.53;;;14.50;1.00;;;;;;5032040;28;20271;-61
2021/08/01 01:25:47;;;;;;;25.53;18.40;;;14.50;1.00;;;;;;5032080;28;20217;-61
2021/08/01 01:28:21;;;;;;;24.67;18.77;;;14.50;1.00;;;;;;5032135;28;20210;-61
2021/08/01 01:31:03;;;;;;;26.53;18.67;;;14.50;1.00;;;;;;5032099;28;20260;-61
2021/08/01 01:33:34;;;;;;;27.47;18.70;;;14.50;1.00;;;;;;5031778;28;20631;-61
2021/08/01 01:36:05;;;;;;;30.10;19.63;;;14.50;1.00;;;;;;5032181;28;20202;-61
2021/08/01 01:38:35;;;;;;;27.03;18.13;;;14.50;1.00;;;;;;5031876;28;20209;-62
2021/08/01 01:41:02;;;;;;;23.40;18.33;;;14.50;1.00;;;;;;5032037;28;20206;-62
2021/08/01 01:43:29;;;;;;;24.83;18.23;;;14.50;1.00;;;;;;5031851;28;20721;-61
2021/08/01 01:45:56;;;;;;;24.43;17.60;;;14.60;1.00;;;;;;5031989;28;20213;-62
2021/08/01 01:48:23;;;;;;;23.20;17.03;;;14.60;1.00;;;;;;5031483;28;20268;-61
2021/08/01 01:50:50;;;;;;;27.13;17.87;;;14.60;1.00;;;;;;5031959;28;20737;-62
2021/08/01 01:53:17;;;;;;;22.90;17.77;;;14.60;1.00;;;;;;5031819;28;20226;-61
2021/08/01 01:55:46;;;;;;;27.20;19.23;;;14.60;1.00;;;;;;5031600;28;20839;-61
2021/08/01 01:58:14;;;;;;;29.93;21.03;;;14.50;1.00;;;;;;5031811;28;20206;-61
2021/08/01 02:00:40;;;;;;;32.50;21.43;;;14.50;1.00;;;;;;5031371;28;20279;-62
2021/08/01 02:03:07;;;;;;;34.57;21.97;;;14.50;1.00;;;;;;5031867;28;20210;-61
2021/08/01 02:05:34;;;;;;;38.47;23.67;;;14.50;1.00;;;;;;5031591;28;20213;-61
2021/08/01 02:08:02;;;;;;;36.77;22.83;;;14.50;7.40;;;;;;5032362;28;20272;-62
2021/08/01 02:10:35;;;;;;;38.07;24.00;;;14.60;17.20;;;;;;5035517;28;20226;-61
2021/08/01 02:13:05;;;;;;;35.40;22.73;;;14.60;21.10;;;;;;5035480;28;20641;-61
2021/08/01 02:15:38;;;;;;;35.53;22.57;;;14.60;25.60;;;;;;5035062;28;20206;-62
2021/08/01 02:18:08;;;;;;;34.10;21.47;;;14.70;28.00;;;;;;5035570;28;20210;-61
2021/08/01 02:20:40;;;;;;;36.33;22.50;;;14.70;30.00;;;;;;5035200;28;20230;-61
2021/08/01 02:23:09;;;;;;;35.20;22.00;;;14.70;33.30;;;;;;5035459;28;20214;-62
2021/08/01 02:25:37;;;;;;;38.13;23.87;;;14.70;34.40;;;;;;5034868;28;20210;-61
2021/08/01 02:28:07;;;;;;;36.73;23.40;;;14.60;37.40;;;;;;5035086;28;20218;-60
2021/08/01 02:30:35;;;;;;;34.57;23.50;;;14.60;41.60;;;;;;5035218;28;20667;-61
2021/08/01 02:33:02;;;;;;;40.83;26.47;;;14.60;44.90;;;;;;5035031;28;20218;-60
2021/08/01 02:35:31;;;;;;;37.80;24.53;;;14.60;48.20;;;;;;5034874;28;20210;-60
2021/08/01 02:38:00;;;;;;;46.37;25.07;;;14.60;51.30;;;;;;5034826;28;20213;-61
2021/08/01 02:40:29;;;;;;;40.93;23.93;;;14.50;52.60;;;;;;5034921;28;20721;-61
2021/08/01 02:42:59;;;;;;;39.47;24.23;;;14.50;53.60;;;;;;5034952;28;20205;-61
2021/08/01 02:45:28;;;;;;;35.00;23.43;;;14.50;53.30;;;;;;5034777;28;20210;-60
2021/08/01 02:47:56;;;;;;;38.80;24.27;;;14.50;53.20;;;;;;5034706;28;20209;-61
2021/08/01 02:50:26;;;;;;;41.57;25.60;;;14.50;53.30;;;;;;5034550;28;20279;-62
2021/08/01 02:52:58;;;;;;;40.33;25.80;;;14.50;56.00;;;;;;5034474;28;20287;-61
2021/08/01 02:55:28;;;;;;;40.83;25.17;;;14.50;58.60;;;;;;5034742;28;20209;-61
2021/08/01 02:57:55;;;;;;;39.93;25.67;;;14.50;59.80;;;;;;5034651;28;20206;-58
2021/08/01 03:00:23;;;;;;;37.90;24.80;;;14.50;63.90;;;;;;5034664;28;20230;-62
2021/08/01 03:02:52;;;;;;;35.87;24.43;;;14.60;64.70;;;;;;5034570;28;20644;-62
2021/08/01 03:05:20;;;;;;;45.43;25.07;;;14.60;62.40;;;;;;5034298;28;20256;-60
2021/08/01 03:07:49;;;;;;;38.97;25.10;;;14.50;63.60;;;;;;5034438;28;20643;-60
2021/08/01 03:10:16;;;;;;;37.70;25.10;;;14.50;64.60;;;;;;5034405;28;20238;-63
2021/08/01 03:12:44;;;;;;;38.37;24.20;;;14.60;66.60;;;;;;5034333;28;20214;-62
2021/08/01 03:15:11;;;;;;;37.13;23.93;;;14.60;66.30;;;;;;5034150;28;20625;-61
2021/08/01 03:17:38;;;;;;;33.63;22.17;;;14.60;59.50;;;;;;5034207;28;20206;-62
2021/08/01 03:20:10;;;;;;;33.40;23.63;;;14.50;58.10;;;;;;5033953;28;20596;-61
2021/08/01 03:22:37;;;;;;;35.67;23.63;;;14.50;56.50;;;;;;5034636;28;20283;-61
2021/08/01 03:25:05;;;;;;;38.90;24.70;;;14.50;54.60;;;;;;5034097;28;20835;-61
2021/08/01 03:27:31;;;;;;;39.10;24.60;;;14.50;54.30;;;;;;5034134;28;20272;-60
2021/08/01 03:29:58;;;;;;;42.07;24.60;;;14.50;55.60;;;;;;5033976;28;20276;-58
2021/08/01 03:32:24;;;;;;;39.27;25.20;;;14.40;56.80;;;;;;5033959;28;20214;-61
2021/08/01 03:34:51;;;;;;;42.07;26.03;;;14.50;59.40;;;;;;5033623;28;20693;-61
2021/08/01 03:37:19;;;;;;;40.10;25.23;;;14.50;59.20;;;;;;5034102;28;20260;-60
2021/08/01 03:39:45;;;;;;;38.97;25.67;;;14.50;58.20;;;;;;5033961;28;20638;-60
2021/08/01 03:42:12;;;;;;;42.00;25.63;;;14.50;59.70;;;;;;5033562;28;20237;-58
2021/08/01 03:44:39;;;;;;;35.87;24.13;;;14.50;59.40;;;;;;5033671;28;20674;-61
2021/08/01 03:47:05;;;;;;;40.57;25.23;;;14.60;58.60;;;;;;5033426;28;20214;-59
2021/08/01 03:49:32;;;;;;;36.17;23.70;;;14.60;59.00;;;;;;5033705;28;20647;-59
2021/08/01 03:51:59;;;;;;;36.47;23.37;;;14.60;58.60;;;;;;5033755;28;20245;-61
2021/08/01 03:54:27;;;;;;;38.53;25.90;;;14.70;58.20;;;;;;5033401;28;20284;-61
2021/08/01 03:56:54;;;;;;;38.27;24.13;;;14.70;58.80;;;;;;5033509;28;20267;-62
2021/08/01 03:59:20;;;;;;;39.93;24.73;;;14.70;57.80;;;;;;5033191;28;20226;-61
2021/08/01 04:01:47;;;;;;;35.07;24.03;;;14.70;56.40;;;;;;5033662;28;20214;-63
2021/08/01 04:04:13;;;;;;;38.37;23.20;;;14.70;54.20;;;;;;5033344;28;20245;-62
2021/08/01 04:06:40;;;;;;;36.33;23.73;;;14.70;52.30;;;;;;5033668;28;20652;-61
2021/08/01 04:09:07;;;;;;;35.07;22.63;;;14.70;51.40;;;;;;5033111;28;20230;-62
2021/08/01 04:11:36;;;;;;;34.03;24.53;;;14.70;51.70;;;;;;5033301;28;20682;-62
2021/08/01 04:14:03;;;;;;;38.83;23.87;;;14.80;49.50;;;;;;5032799;28;20415;-60
2021/08/01 04:16:30;;;;;;;36.07;23.63;;;14.80;49.10;;;;;;5033326;28;20631;-62
2021/08/01 04:18:56;;;;;;;42.10;23.93;;;14.80;49.10;;;;;;5033123;28;20234;-62
2021/08/01 04:21:23;;;;;;;33.00;22.87;;;14.80;51.90;;;;;;5033172;28;20206;-60
2021/08/01 04:23:49;;;;;;;36.37;23.17;;;14.80;50.20;;;;;;5032894;28;20264;-63
2021/08/01 04:26:16;;;;;;;31.83;23.13;;;14.80;47.60;;;;;;5032832;28;20221;-62
2021/08/01 04:28:44;;;;;;;34.20;21.73;;;14.80;46.40;;;;;;5032727;28;20242;-61
2021/08/01 04:31:11;;;;;;;32.70;21.57;;;14.80;47.70;;;;;;5032153;28;20671;-60
2021/08/01 04:33:37;;;;;;;32.57;22.73;;;14.80;45.20;;;;;;5032659;28;20272;-62
2021/08/01 04:36:04;;;;;;;32.93;22.27;;;14.80;46.30;;;;;;5032803;28;20206;-62
2021/08/01 04:38:31;;;;;;;34.00;21.70;;;14.80;46.40;;;;;;5032773;28;20257;-60
2021/08/01 04:40:58;;;;;;;27.80;20.50;;;14.90;44.60;;;;;;5032648;28;20264;-62
2021/08/01 04:43:24;;;;;;;33.90;22.03;;;14.90;41.30;;;;;;5032456;28;20630;-64
2021/08/01 04:45:52;;;;;;;33.27;21.47;;;14.90;38.40;;;;;;5032753;28;20206;-62
2021/08/01 04:48:19;;;;;;;33.70;22.77;;;14.90;38.50;;;;;;5032639;28;20268;-62
2021/08/01 04:50:45;;;;;;;33.53;22.77;;;14.90;37.90;;;;;;5032603;28;20305;-63
2021/08/01 04:53:12;;;;;;;32.67;22.67;;;14.80;39.60;;;;;;5032394;28;20206;-62
2021/08/01 04:55:39;;;;;;;35.03;23.40;;;14.90;39.50;;;;;;5032176;28;20215;-62
2021/08/01 04:58:06;;;;;;;32.20;22.30;;;14.90;37.00;;;;;;5032473;28;20225;-63
2021/08/01 05:00:33;;;;;;;30.13;21.33;;;14.90;36.90;;;;;;5032436;28;20226;-63
2021/08/01 05:03:02;;;;;;;33.50;21.83;;;14.90;35.60;;;;;;5032363;28;20210;-63
2021/08/01 05:05:34;;;;;;;30.50;21.00;;;14.90;31.80;;;;;;5032197;28;20206;-63
2021/08/01 05:08:01;;;;;;;31.37;22.10;;;14.90;33.10;;;;;;5032286;28;20206;-63
2021/08/01 05:10:28;;;;;;;31.07;21.23;;;14.90;33.20;;;;;;5032070;28;20233;-60
2021/08/01 05:12:54;;;;;;;29.10;21.57;;;14.90;29.60;;;;;;5032424;28;20214;-60
2021/08/01 05:15:21;;;;;;;28.37;21.10;;;14.90;28.60;;;;;;5031971;28;20222;-62
2021/08/01 05:17:47;;;;;;;26.07;19.10;;;14.90;21.20;;;;;;5032273;28;20252;-62
2021/08/01 05:20:16;;;;;;;28.37;19.27;;;15.00;17.00;;;;;;5032256;28;20226;-61
2021/08/01 05:22:42;;;;;;;28.67;18.97;;;15.00;8.20;;;;;;5032171;28;20210;-62
2021/08/01 05:25:10;;;;;;;27.23;19.03;;;15.00;2.80;;;;;;5031719;28;20256;-63
2021/08/01 05:27:36;;;;;;;25.37;18.23;;;15.00;1.00;;;;;;5032140;28;20210;-62
2021/08/01 05:30:03;;;;;;;24.83;18.33;;;15.00;1.00;;;;;;5032067;28;20226;-60
2021/08/01 05:32:33;;;;;;;26.43;17.93;;;15.00;1.00;;;;;;5032035;28;20240;-61
2021/08/01 05:35:00;;;;;;;24.77;18.30;;;15.00;1.00;;;;;;5031674;28;20232;-61
2021/08/01 05:37:28;;;;;;;21.53;16.63;;;14.90;1.00;;;;;;5031789;28;20671;-60
2021/08/01 05:39:55;;;;;;;22.40;17.43;;;15.00;1.00;;;;;;5032205;28;20225;-62
2021/08/01 05:42:21;;;;;;;24.40;15.83;;;15.00;1.00;;;;;;5032015;28;20787;-61
2021/08/01 05:44:48;;;;;;;25.03;17.00;;;15.00;1.00;;;;;;5035374;28;20206;-62
2021/08/01 05:47:14;;;;;;;21.20;17.00;;;15.00;1.00;;;;;;5036086;28;20625;-63
2021/08/01 05:49:41;;;;;;;23.13;17.07;;;15.10;1.00;;;;;;5035926;28;20230;-62
2021/08/01 05:52:07;;;;;;;22.03;16.37;;;15.10;1.00;;;;;;5035590;28;20264;-62
2021/08/01 05:54:35;;;;;;;23.40;16.63;;;15.10;1.00;;;;;;5035915;28;20218;-62
2021/08/01 05:57:02;;;;;;;22.20;16.53;;;15.10;1.00;;;;;;5035714;28;20210;-62
2021/08/01 05:59:29;;;;;;;23.83;16.73;;;15.10;1.00;;;;;;5035973;28;20256;-62
2021/08/01 06:01:55;;;;;;;23.30;16.53;;;15.10;1.00;;;;;;5035685;28;20214;-63
2021/08/01 06:04:22;;;;;;;24.57;17.13;;;15.20;1.00;;;;;;5035320;28;20555;-63
2021/08/01 06:06:48;;;;;;;24.23;16.73;;;15.20;1.00;;;;;;5035902;28;20864;-63
2021/08/01 06:09:15;;;;;;;21.90;15.63;;;15.20;1.00;;;;;;5035631;28;20222;-61
2021/08/01 06:11:43;;;;;;;24.50;16.77;;;15.20;1.00;;;;;;5035816;28;20666;-62
2021/08/01 06:14:09;;;;;;;22.83;16.90;;;15.20;1.00;;;;;;5035435;28;20226;-63
2021/08/01 06:16:36;;;;;;;22.87;16.23;;;15.20;1.00;;;;;;5035474;28;20215;-62
2021/08/01 06:19:03;;;;;;;26.87;18.17;;;15.30;1.00;;;;;;5035679;28;20364;-62
2021/08/01 06:21:29;;;;;;;27.27;19.13;;;15.30;1.00;;;;;;5035744;28;20210;-61
2021/08/01 06:23:57;;;;;;;23.73;17.23;;;15.30;99.90;;;;;;5035432;28;20202;-62
2021/08/01 06:26:24;;;;;;;29.97;21.33;;;15.40;99.90;;;;;;5035332;28;20215;-61
2021/08/01 06:28:52;;;;;;;29.27;21.30;;;15.40;99.90;;;;;;5035108;28;20292;-61
2021/08/01 06:31:19;;;;;;;30.87;21.33;;;15.50;99.90;;;;;;5035047;28;20699;-62
2021/08/01 06:33:45;;;;;;;27.60;20.77;;;15.60;99.90;;;;;;5034765;28;20260;-62
2021/08/01 06:36:14;;;;;;;26.80;19.13;;;15.70;99.90;;;;;;5035068;28;20276;-62
2021/08/01 06:38:42;;;;;;;25.13;18.50;;;15.90;1.00;;;;;;5035085;28;20206;-61
2021/08/01 06:41:09;;;;;;;28.27;19.37;;;16.00;37.70;;;;;;5034831;28;20256;-61
2021/08/01 06:43:36;;;;;;;27.53;19.20;;;16.00;99.90;;;;;;5034816;28;20206;-63
2021/08/01 06:46:04;;;;;;;21.77;17.27;;;16.10;5.60;;;;;;5034715;28;20212;-63
2021/08/01 06:48:31;;;;;;;24.67;17.87;;;16.30;1.00;;;;;;5034863;28;20206;-62
2021/08/01 06:50:58;;;;;;;20.77;16.47;;;16.40;99.90;;;;;;5034824;28;20218;-62
2021/08/01 06:53:27;;;;;;;17.53;14.83;;;16.50;99.90;;;;;;5034531;28;20210;-64
2021/08/01 06:55:53;;;;;;;19.57;14.87;;;16.70;76.90;;;;;;5034201;28;20249;-63
2021/08/01 06:58:21;;;;;;;18.10;14.20;;;16.80;1.00;;;;;;5034572;28;20206;-62
2021/08/01 07:00:48;;;;;;;18.30;14.77;;;16.70;1.00;;;;;;5034378;28;20681;-62
2021/08/01 07:03:17;;;;;;;17.67;13.03;;;16.60;99.90;;;;;;5034613;28;20264;-61
2021/08/01 07:05:45;;;;;;;17.57;13.70;;;16.50;1.00;;;;;;5034255;28;20198;-63
2021/08/01 07:08:12;;;;;;;20.13;13.70;;;16.30;99.90;;;;;;5034486;28;20210;-61
2021/08/01 07:10:38;;;;;;;18.13;13.67;;;16.40;99.90;;;;;;5034343;28;20222;-62
2021/08/01 07:13:06;;;;;;;17.03;12.97;;;16.50;99.90;;;;;;5034370;28;20215;-62
2021/08/01 07:15:33;;;;;;;18.30;12.40;;;16.60;99.90;;;;;;5034013;28;20284;-62
2021/08/01 07:18:01;;;;;;;16.23;11.70;;;16.80;1.00;;;;;;5033205;28;20256;-64
2021/08/01 07:20:29;;;;;;;14.30;11.07;;;16.90;99.90;;;;;;5041041;28;20229;-61
2021/08/01 07:22:56;;;;;;;14.57;11.03;;;17.00;1.00;;;;;;5038968;28;20275;-61
2021/08/01 07:25:24;;;;;;;16.77;11.63;;;17.10;99.90;;;;;;5033988;28;20202;-62
2021/08/01 07:27:50;;;;;;;18.67;11.03;;;17.10;1.00;;;;;;5033971;28;20582;-63
2021/08/01 07:30:17;;;;;;;18.37;10.50;;;17.30;51.20;;;;;;5034010;28;20230;-63
2021/08/01 07:32:44;;;;;;;13.77;9.47;;;17.50;1.00;;;;;;5033910;28;20260;-62
2021/08/01 07:35:11;;;;;;;14.00;9.77;;;17.50;1.00;;;;;;5029450;28;20276;-62
2021/08/01 07:37:39;;;;;;;14.57;9.73;;;17.40;99.90;;;;;;5033430;28;20210;-59
2021/08/01 07:40:07;;;;;;;14.93;9.70;;;17.40;99.90;;;;;;5033264;28;20638;-61
2021/08/01 07:42:33;;;;;;;12.93;10.00;;;17.30;23.50;;;;;;5033051;28;20260;-63
2021/08/01 07:45:03;;;;;;;18.53;10.03;;;17.20;1.00;;;;;;5033376;28;20610;-62
2021/08/01 07:47:34;;;;;;;14.07;10.03;;;17.10;99.90;;;;;;5033213;28;20210;-62
2021/08/01 07:50:01;;;;;;;14.73;10.10;;;17.20;99.90;;;;;;5033443;28;20598;-61
2021/08/01 07:52:27;;;;;;;13.27;8.73;;;17.30;1.00;;;;;;5033053;28;20210;-62
2021/08/01 07:54:56;;;;;;;13.70;8.53;;;17.70;99.90;;;;;;5032508;28;20287;-61
2021/08/01 07:57:24;;;;;;;13.07;7.17;;;18.00;99.90;;;;;;5033090;28;20209;-63
2021/08/01 07:59:51;;;;;;;11.13;7.27;;;18.20;99.90;;;;;;5032984;28;20872;-63
2021/08/01 08:02:18;;;;;;;12.23;7.33;;;18.30;1.00;;;;;;5033203;28;20206;-63
2021/08/01 08:04:44;;;;;;;9.93;6.20;;;18.40;1.00;;;;;;5032348;28;20244;-63
2021/08/01 08:07:11;;;;;;;10.63;6.27;;;18.50;99.90;;;;;;5032054;28;20237;-63
2021/08/01 08:09:38;;;;;;;7.13;4.97;;;18.30;99.90;;;;;;5032686;28;20234;-63
2021/08/01 08:12:07;;;;;;;6.30;4.67;;;18.40;1.00;;;;;;5033054;28;20206;-62
2021/08/01 08:14:33;;;;;;;8.33;4.70;;;18.60;99.90;;;;;;5032263;28;20223;-61
2021/08/01 08:17:00;;;;;;;10.83;4.83;;;18.70;99.90;;;;;;5032626;28;20240;-62
2021/08/01 08:19:27;;;;;;;7.27;4.10;;;18.70;98.10;;;;;;5032625;28;20257;-62
2021/08/01 08:21:54;;;;;;;6.67;4.30;;;18.60;99.90;;;;;;5032528;28;20252;-61
2021/08/01 08:24:21;;;;;;;8.23;4.90;;;18.40;99.90;;;;;;5032328;28;20206;-61
2021/08/01 08:26:48;;;;;;;9.80;4.97;;;18.30;99.90;;;;;;5032514;28;20214;-61
2021/08/01 08:29:16;;;;;;;7.23;4.80;;;18.50;99.90;;;;;;5031977;28;20234;-61
2021/08/01 08:31:46;;;;;;;9.33;4.37;;;18.70;99.90;;;;;;5032271;28;20611;-60
2021/08/01 08:34:13;;;;;;;6.83;3.97;;;18.80;91.40;;;;;;5032165;28;20234;-61
2021/08/01 08:36:40;;;;;;;6.90;4.10;;;18.80;36.40;;;;;;5032115;28;20257;-61
2021/08/01 08:39:06;;;;;;;6.60;4.37;;;18.60;1.00;;;;;;5031692;28;20237;-66
2021/08/01 08:41:34;;;;;;;5.90;4.00;;;18.60;99.90;;;;;;5032474;28;20202;-63
2021/08/01 08:44:00;;;;;;;7.37;3.80;;;18.80;51.90;;;;;;5031088;28;20622;-64
2021/08/01 08:46:29;;;;;;;7.67;4.20;;;19.20;73.10;;;;;;5032229;28;20206;-66
2021/08/01 08:48:56;;;;;;;5.90;3.47;;;19.40;90.20;;;;;;5031954;28;20633;-64
2021/08/01 08:51:25;;;;;;;7.43;3.70;;;19.40;1.00;;;;;;5032187;28;20737;-65
2021/08/01 08:53:54;;;;;;;7.70;3.33;;;19.20;1.00;;;;;;5031512;28;20210;-65
2021/08/01 08:56:22;;;;;;;8.70;3.50;;;19.10;1.00;;;;;;5032017;28;20230;-67
2021/08/01 08:58:52;;;;;;;5.07;3.30;;;19.00;1.00;;;;;;5032054;28;20762;-67
2021/08/01 09:01:19;;;;;;;7.60;3.67;;;18.80;1.00;;;;;;5031848;28;20206;-65
2021/08/01 09:03:49;;;;;;;7.03;3.30;;;18.50;1.00;;;;;;5031387;28;20210;-65
2021/08/01 09:06:15;;;;;;;6.10;3.37;;;18.20;1.00;;;;;;5031966;28;20220;-67
2021/08/01 09:08:42;;;;;;;5.43;3.30;;;18.10;6.10;;;;;;5031954;28;20206;-63
2021/08/01 09:11:09;;;;;;;7.53;3.77;;;18.00;1.00;;;;;;5031863;28;20256;-63
2021/08/01 09:13:50;;;;;;;6.03;3.33;;;18.10;99.90;;;;;;5031639;28;20206;-61
2021/08/01 09:16:18;;;;;;;5.40;3.70;;;18.40;9.70;;;;;;5031404;28;20217;-66
2021/08/01 09:18:45;;;;;;;5.77;2.57;;;18.70;99.90;;;;;;5031645;28;20226;-66
2021/08/01 09:21:29;;;;;;;5.53;2.80;;;19.00;1.00;;;;;;5031512;28;20614;-64
2021/08/01 09:23:56;;;;;;;3.70;2.60;;;19.40;1.00;;;;;;5031326;28;20202;-65
2021/08/01 09:26:23;;;;;;;8.40;2.83;;;19.60;1.00;;;;;;5031587;28;20582;-64
2021/08/01 09:29:02;;;;;;;5.03;3.00;;;20.00;1.00;;;;;;5031330;28;20660;-64
2021/08/01 09:31:29;;;;;;;7.17;2.87;;;20.20;1.00;;;;;;5031763;28;20828;-67
2021/08/01 09:33:56;;;;;;;3.87;2.50;;;20.20;1.00;;;;;;5031264;28;20214;-67
2021/08/01 09:36:26;;;;;;;6.17;2.80;;;20.00;1.00;;;;;;5030547;28;20352;-66
2021/08/01 09:38:55;;;;;;;6.77;2.63;;;19.70;1.00;;;;;;5031323;28;20226;-66
2021/08/01 09:41:24;;;;;;;4.83;3.20;;;19.80;1.00;;;;;;5031779;28;20260;-66
2021/08/01 09:43:53;;;;;;;5.93;2.63;;;20.00;1.00;;;;;;5031346;28;20202;-67
2021/08/01 09:46:21;;;;;;;4.40;2.63;;;20.00;1.00;;;;;;5031437;28;20214;-69
2021/08/01 09:49:07;;;;;;;14.20;3.20;;;19.90;1.00;;;;;;5031640;28;20758;-68
2021/08/01 09:51:40;;;;;;;6.43;3.30;;;19.80;1.00;;;;;;5031381;28;20225;-67
2021/08/01 09:54:07;;;;;;;5.67;2.60;;;19.80;1.00;;;;;;5030920;28;20263;-68
2021/08/01 09:56:34;;;;;;;7.73;3.17;;;19.80;99.90;;;;;;5031008;28;20271;-62
2021/08/01 09:59:00;;;;;;;9.13;3.80;;;19.70;1.00;;;;;;5031382;28;20230;-61
2021/08/01 10:01:27;;;;;;;5.67;3.30;;;19.70;99.90;;;;;;5031511;28;20214;-63
2021/08/01 10:03:54;;;;;;;6.20;3.57;;;19.80;99.90;;;;;;5031077;28;20206;-61
2021/08/01 10:06:23;;;;;;;7.70;3.83;;;19.60;99.90;;;;;;5031302;28;20207;-63
2021/08/01 10:08:52;;;;;;;8.57;4.20;;;19.40;99.90;;;;;;5031404;28;20849;-63
2021/08/01 10:11:21;;;;;;;7.50;4.60;;;19.20;99.90;;;;;;5031491;28;20608;-64
2021/08/01 10:13:49;;;;;;;10.07;4.93;;;18.80;99.90;;;;;;5031159;28;20206;-64
2021/08/01 10:16:16;;;;;;;7.40;4.23;;;18.40;99.90;;;;;;5030960;28;20277;-63
2021/08/01 10:18:44;;;;;;;7.90;4.10;;;18.30;1.00;;;;;;5031064;28;20211;-63
2021/08/01 10:21:13;;;;;;;9.13;3.97;;;18.50;1.00;;;;;;5029480;28;20210;-63
2021/08/01 10:23:41;;;;;;;6.87;3.90;;;18.80;1.00;;;;;;5030430;28;20203;-63
2021/08/01 10:26:10;;;;;;;5.70;3.23;;;19.20;99.90;;;;;;5030805;28;20721;-63
2021/08/01 10:28:41;;;;;;;7.23;3.63;;;19.60;1.00;;;;;;5030993;28;20280;-64
2021/08/01 10:31:11;;;;;;;6.40;3.70;;;19.80;99.90;;;;;;5033999;28;20202;-64
2021/08/01 10:33:46;;;;;;;4.57;3.17;;;20.00;99.90;;;;;;5034196;28;20210;-65
2021/08/01 10:36:18;;;;;;;8.13;4.00;;;19.70;99.90;;;;;;5034355;28;20233;-65
2021/08/01 10:38:46;;;;;;;5.73;3.90;;;19.50;99.90;;;;;;5034640;28;20280;-64
2021/08/01 10:41:15;;;;;;;5.77;3.30;;;19.50;99.90;;;;;;5034239;28;20211;-64
2021/08/01 10:43:42;;;;;;;5.03;3.23;;;19.90;99.90;;;;;;5033814;28;20261;-64
2021/08/01 10:46:10;;;;;;;5.93;3.83;;;20.00;99.90;;;;;;5034298;28;20199;-64
2021/08/01 10:48:36;;;;;;;7.90;3.53;;;19.80;99.90;;;;;;5034343;28;20252;-64
2021/08/01 10:51:03;;;;;;;5.63;3.33;;;19.60;99.90;;;;;;5034032;28;20210;-65
2021/08/01 10:53:31;;;;;;;6.20;3.23;;;19.40;99.90;;;;;;5033756;28;20214;-64
2021/08/01 10:56:33;;;;;;;4.93;3.20;;;19.30;99.90;;;;;;5033965;28;20218;-64
2021/08/01 10:58:59;;;;;;;6.00;3.27;;;19.20;99.90;;;;;;5034111;28;20383;-64
2021/08/01 11:01:27;;;;;;;5.63;3.50;;;19.20;99.90;;;;;;5034318;28;20217;-64
2021/08/01 11:04:28;;;;;;;5.27;3.37;;;19.20;99.90;;;;;;5033459;28;20210;-64
2021/08/01 11:06:54;;;;;;;3.83;2.57;;;19.50;99.90;;;;;;5023340;28;20220;-64
2021/08/01 11:09:21;;;;;;;5.17;3.07;;;19.50;99.90;;;;;;5033942;28;20650;-64
2021/08/01 11:15:02;;;;;;;6.23;3.07;;;19.20;99.90;;;;;;5088201;28;20599;-68
2021/08/01 11:18:06;;;;;;;6.57;3.10;;;19.50;99.90;;;;;;5089263;28;20258;-66
2021/08/01 11:20:52;;;;;;;4.83;3.00;;;19.70;99.90;;;;;;5087323;28;20266;-66
2021/08/01 11:23:19;;;;;;;6.70;3.30;;;20.10;99.90;;;;;;5089036;28;20205;-66
2021/08/01 11:26:08;;;;;;;7.73;3.43;;;20.40;99.90;;;;;;5088705;28;20673;-67
2021/08/01 11:28:36;;;;;;;5.93;3.10;;;20.10;99.90;;;;;;5089093;28;20204;-67
2021/08/01 11:31:19;;;;;;;39.90;10.30;;;20.30;99.90;;;;;;5088989;28;20212;-66
2021/08/01 11:33:47;;;;;;;16.63;5.20;;;20.40;99.90;;;;;;5088325;28;20234;-67
2021/08/01 11:36:35;;;;;;;8.63;3.47;;;20.60;99.90;;;;;;5088974;28;20242;-66
2021/08/01 11:39:05;;;;;;;10.43;4.43;;;20.70;99.90;;;;;;5088877;28;20220;-66
2021/08/01 11:41:43;;;;;;;20.23;5.60;;;20.80;99.90;;;;;;5088715;28;20207;-66
2021/08/01 11:44:20;;;;;;;6.87;3.20;;;20.90;99.90;;;;;;5088387;28;20197;-67
2021/08/01 11:47:07;;;;;;;11.27;3.63;;;20.70;99.90;;;;;;5089055;28;20196;-66
2021/08/01 11:49:37;;;;;;;7.80;3.30;;;20.70;99.90;;;;;;5088544;28;20646;-66
2021/08/01 11:52:06;;;;;;;5.97;2.80;;;20.80;99.90;;;;;;5088672;28;20293;-66
2021/08/01 11:54:34;;;;;;;9.53;4.77;;;21.00;99.90;;;;;;5087667;28;20228;-67
2021/08/01 11:57:03;;;;;;;6.53;3.73;;;21.10;99.90;;;;;;5089074;28;20204;-66
2021/08/01 11:59:31;;;;;;;10.03;4.00;;;21.20;99.90;;;;;;5088499;28;20270;-68
2021/08/01 12:02:00;;;;;;;7.77;3.27;;;21.40;99.90;;;;;;5088328;28;20672;-69
2021/08/01 12:04:28;;;;;;;4.80;3.20;;;21.60;99.90;;;;;;5087859;28;20200;-69
2021/08/01 12:06:56;;;;;;;5.00;3.10;;;21.00;99.90;;;;;;5087636;28;20234;-68
2021/08/01 12:09:25;;;;;;;7.97;3.67;;;20.70;99.90;;;;;;5087901;28;20289;-70
2021/08/01 12:11:53;;;;;;;7.17;3.73;;;21.00;99.90;;;;;;5088347;28;20209;-69
2021/08/01 12:14:23;;;;;;;10.67;4.60;;;21.30;99.90;;;;;;5087138;28;20254;-67
2021/08/01 12:16:57;;;;;;;6.17;3.60;;;21.20;99.90;;;;;;5088011;28;20700;-66
2021/08/01 12:19:27;;;;;;;9.37;4.00;;;21.40;99.90;;;;;;5087835;28;20231;-66
2021/08/01 12:21:57;;;;;;;5.83;3.47;;;21.70;99.90;;;;;;5088021;28;20205;-67
2021/08/01 12:24:29;;;;;;;5.67;3.73;;;21.30;99.90;;;;;;5085566;28;20258;-65
2021/08/01 12:27:01;;;;;;;10.67;3.70;;;21.20;99.90;;;;;;5074312;28;20211;-65
2021/08/01 12:29:32;;;;;;;7.20;3.60;;;21.20;99.90;;;;;;5074299;28;20228;-66
2021/08/01 12:32:00;;;;;;;10.40;5.17;;;21.40;99.90;;;;;;5074142;28;20200;-66
2021/08/01 12:34:28;;;;;;;7.23;5.93;;;21.50;99.90;;;;;;5073856;28;20639;-67
2021/08/01 12:36:56;;;;;;;5.53;4.40;;;21.60;99.90;;;;;;5074357;28;20209;-66
2021/08/01 12:39:22;;;;;;;5.87;3.60;;;21.60;99.90;;;;;;5074323;28;20231;-66
2021/08/01 12:41:50;;;;;;;6.00;3.87;;;21.70;99.90;;;;;;5074067;28;20212;-66
2021/08/01 12:44:19;;;;;;;7.33;3.80;;;21.80;99.90;;;;;;5073772;28;20239;-66
2021/08/01 12:46:46;;;;;;;5.77;3.93;;;21.50;99.90;;;;;;5074321;28;20265;-66
2021/08/01 12:49:13;;;;;;;6.10;4.50;;;21.70;99.90;;;;;;5073992;28;20228;-65